Time;durP1;ratioP1;P1;durP2;ratioP2;P2;SDS_P1;SDS_P2;PMS_P1;PMS_P2;Temp;Humidity;BMP_temperature;BMP_pressure;BME280_temperature;BME280_humidity;BME280_pressure;Samples;Min_cycle;Max_cycle;Signal;HPM_P1;HPM_P2
2022/01/08 00:02:12;;;;;;;11.13;7.78;;;;;;;-12.99;72.60;100535.41;4982114;28;20101;-77
2022/01/08 00:04:43;;;;;;;9.07;4.93;;;;;;;-12.75;72.41;100516.38;4981923;28;20065;-78
2022/01/08 00:07:14;;;;;;;6.97;3.97;;;;;;;-12.47;71.95;100521.09;4981835;28;20077;-78
2022/01/08 00:09:44;;;;;;;7.30;3.38;;;;;;;-12.16;71.54;100535.28;4984040;28;20233;-77
2022/01/08 00:12:15;;;;;;;8.65;4.53;;;;;;;-11.96;70.96;100526.75;4985536;28;20254;-77
2022/01/08 00:14:46;;;;;;;7.00;3.20;;;;;;;-11.80;70.43;100521.25;4985454;28;20057;-77
2022/01/08 00:17:19;;;;;;;5.63;3.20;;;;;;;-11.66;69.93;100521.41;4985546;28;20053;-78
2022/01/08 00:19:50;;;;;;;6.03;3.88;;;;;;;-11.54;69.89;100517.28;4985447;28;20105;-78
2022/01/08 00:22:21;;;;;;;10.63;4.45;;;;;;;-11.39;69.61;100515.91;4985448;28;20323;-77
2022/01/08 00:24:52;;;;;;;12.27;6.13;;;;;;;-11.21;68.79;100523.94;4985413;28;20050;-77
2022/01/08 00:27:23;;;;;;;61.75;20.20;;;;;;;-11.15;68.62;100509.28;4985395;28;20046;-77
2022/01/08 00:29:54;;;;;;;78.57;33.42;;;;;;;-10.93;68.52;100510.84;4985068;28;20347;-78
2022/01/08 00:32:27;;;;;;;24.38;14.73;;;;;;;-10.82;68.07;100514.16;4984891;28;20063;-77
2022/01/08 00:34:58;;;;;;;28.65;21.00;;;;;;;-10.71;67.54;100508.22;4994928;28;20042;-78
2022/01/08 00:37:29;;;;;;;15.05;7.38;;;;;;;-10.64;67.68;100501.19;5004832;28;20081;-77
2022/01/08 00:39:59;;;;;;;40.28;17.65;;;;;;;-10.51;67.04;100505.47;5004668;28;20347;-77
2022/01/08 00:42:30;;;;;;;20.77;13.23;;;;;;;-10.33;66.78;100507.53;4998674;28;20088;-77
2022/01/08 00:45:01;;;;;;;7.78;4.28;;;;;;;-10.16;65.52;100506.16;4991969;28;20321;-78
2022/01/08 00:47:34;;;;;;;13.07;5.68;;;;;;;-10.15;65.24;100473.44;4984950;28;20053;-78
2022/01/08 00:50:06;;;;;;;9.25;4.82;;;;;;;-9.93;64.33;100480.84;4984777;28;20058;-78
2022/01/08 00:52:37;;;;;;;6.75;3.72;;;;;;;-9.72;64.15;100499.13;4984803;28;20114;-78
2022/01/08 00:55:09;;;;;;;18.42;8.23;;;;;;;-9.65;63.76;100491.19;4984728;28;20053;-78
2022/01/08 00:57:40;;;;;;;13.77;6.43;;;;;;;-9.57;64.07;100482.44;4984800;28;20061;-78
2022/01/08 01:00:13;;;;;;;9.85;5.25;;;;;;;-9.79;63.79;100410.97;4984703;28;20301;-77
2022/01/08 01:02:45;;;;;;;6.22;3.50;;;;;;;-9.21;63.51;100483.16;4991893;28;20047;-77
2022/01/08 01:05:16;;;;;;;16.60;7.13;;;;;;;-9.04;62.99;100485.91;4992713;28;20109;-77
2022/01/08 01:07:47;;;;;;;17.42;6.95;;;;;;;-9.05;62.51;100468.97;4984049;28;20081;-77
2022/01/08 01:10:18;;;;;;;11.77;6.18;;;;;;;-8.78;62.31;100485.94;4984634;28;20054;-77
2022/01/08 01:12:49;;;;;;;11.32;4.50;;;;;;;-8.59;61.94;100472.75;4984593;28;20055;-78
2022/01/08 01:15:20;;;;;;;6.18;3.50;;;;;;;-8.46;61.74;100464.31;4984042;28;20099;-77
2022/01/08 01:17:52;;;;;;;11.32;5.18;;;;;;;-8.37;60.83;100462.28;4984440;28;20092;-78
2022/01/08 01:20:23;;;;;;;10.52;4.65;;;;;;;-8.21;60.80;100460.69;4984024;28;20101;-78
2022/01/08 01:23:00;;;;;;;8.65;3.75;;;;;;;-8.09;59.54;100458.91;4984455;28;20047;-77
2022/01/08 01:25:35;;;;;;;13.55;6.65;;;;;;;-8.09;59.11;100451.31;4984089;28;20118;-78
2022/01/08 01:28:17;;;;;;;7.22;5.10;;;;;;;-8.04;58.90;100455.00;4983395;28;20242;-77
2022/01/08 01:47:34;;;;;;;9.48;4.60;;;;;;;-7.39;56.34;100440.28;4983674;28;20047;-78
2022/01/08 01:50:09;;;;;;;20.30;8.70;;;;;;;-7.26;56.95;100423.19;4983640;28;20046;-78
2022/01/08 01:52:40;;;;;;;12.23;6.97;;;;;;;-7.09;56.30;100430.13;4983609;28;20082;-77
2022/01/08 01:55:11;;;;;;;8.00;4.63;;;;;;;-6.89;56.31;100432.91;4983594;28;20066;-78
2022/01/08 01:57:42;;;;;;;6.25;3.63;;;;;;;-6.80;55.72;100433.44;4983724;28;20113;-79
2022/01/08 02:00:13;;;;;;;11.68;4.18;;;;;;;-6.77;54.85;100428.50;4983606;28;20381;-78
2022/01/08 02:02:44;;;;;;;6.25;3.72;;;;;;;-6.84;54.14;100422.22;4983713;28;20299;-79
2022/01/08 02:05:17;;;;;;;10.20;5.10;;;;;;;-6.84;54.31;100417.16;4983573;28;20105;-78
2022/01/08 02:07:48;;;;;;;11.07;5.03;;;;;;;-6.60;54.69;100411.66;4983768;28;20109;-79
2022/01/08 02:10:19;;;;;;;6.88;4.30;;;;;;;-6.33;55.46;100414.81;4983628;28;20047;-78
2022/01/08 02:12:49;;;;;;;7.88;4.13;;;;;;;-6.05;54.42;100406.09;4984483;28;20053;-79
2022/01/08 02:15:20;;;;;;;5.38;3.22;;;;;;;-5.96;52.83;100404.03;4983403;28;20051;-82
2022/01/08 02:17:51;;;;;;;6.30;2.88;;;;;;;-5.96;51.95;100399.81;4983447;28;20050;-79
2022/01/08 02:20:23;;;;;;;4.53;3.25;;;;;;;-5.94;51.31;100399.88;4982806;28;20101;-78
2022/01/08 02:22:54;;;;;;;6.32;4.10;;;;;;;-5.94;51.24;100399.88;4982836;28;20047;-79
2022/01/08 02:25:25;;;;;;;8.43;3.72;;;;;;;-5.91;51.31;100384.75;4982980;28;20054;-79
2022/01/08 02:27:55;;;;;;;6.38;3.25;;;;;;;-5.81;51.95;100384.44;4983194;28;20288;-78
2022/01/08 02:30:28;;;;;;;5.65;2.95;;;;;;;-5.96;50.76;100383.69;4982955;28;20062;-78
2022/01/08 02:32:59;;;;;;;5.22;3.17;;;;;;;-5.97;51.10;100381.91;4982310;28;20057;-78
2022/01/08 02:35:33;;;;;;;4.40;2.83;;;;;;;-5.96;50.98;100383.69;4983020;28;20054;-78
2022/01/08 02:38:04;;;;;;;4.45;2.97;;;;;;;-6.04;51.08;100369.69;4982887;28;20051;-78
2022/01/08 02:40:36;;;;;;;7.75;3.60;;;;;;;-6.04;51.18;100373.13;4982363;28;20212;-78
2022/01/08 02:43:06;;;;;;;9.68;5.68;;;;;;;-6.19;51.28;100365.56;4982831;28;20094;-78
2022/01/08 02:45:37;;;;;;;11.85;7.03;;;;;;;-6.39;51.60;100363.63;4982897;28;20358;-78
2022/01/08 02:48:08;;;;;;;9.60;5.25;;;;;;;-6.66;52.13;100358.84;4983006;28;20046;-78
2022/01/08 02:50:40;;;;;;;6.70;4.22;;;;;;;-6.69;52.93;100361.19;4982856;28;20338;-78
2022/01/08 02:53:11;;;;;;;6.22;3.80;;;;;;;-6.74;52.67;100358.44;4982799;28;20073;-78
2022/01/08 02:55:42;;;;;;;8.20;4.03;;;;;;;-6.75;52.80;100360.88;4991516;28;20046;-77
2022/01/08 02:58:12;;;;;;;8.38;3.78;;;;;;;-6.64;52.49;100367.41;4990305;28;20058;-77
2022/01/08 03:00:43;;;;;;;7.97;4.05;;;;;;;-6.64;52.38;100364.88;4997533;28;20058;-77
2022/01/08 03:03:15;;;;;;;9.95;4.57;;;;;;;-6.47;52.46;100362.34;5002055;28;20380;-77
2022/01/08 03:05:48;;;;;;;14.73;5.28;;;;;;;-6.33;52.21;100358.88;4998755;28;20487;-77
2022/01/08 03:08:19;;;;;;;10.02;4.45;;;;;;;-6.31;51.55;100347.13;5002215;28;20050;-77
2022/01/08 03:10:54;;;;;;;8.13;4.43;;;;;;;-6.13;51.70;100360.78;4986559;28;20058;-79
2022/01/08 03:13:25;;;;;;;10.13;3.78;;;;;;;-6.21;51.86;100356.97;4982419;28;20350;-77
2022/01/08 03:15:56;;;;;;;6.63;4.40;;;;;;;-6.43;52.07;100313.44;4982443;28;20234;-76
2022/01/08 03:18:26;;;;;;;7.90;4.13;;;;;;;-6.29;51.76;100353.13;4982379;28;20110;-77
2022/01/08 03:21:11;;;;;;;9.98;3.58;;;;;;;-6.46;52.32;100349.72;4982567;28;20046;-78
2022/01/08 03:23:48;;;;;;;5.55;2.95;;;;;;;-6.65;52.52;100340.25;4982334;28;20085;-77
2022/01/08 03:26:20;;;;;;;12.20;3.70;;;;;;;-6.79;52.84;100343.69;4982513;28;20058;-77
2022/01/08 03:28:51;;;;;;;12.52;4.10;;;;;;;-6.78;53.00;100345.47;4982575;28;20274;-77
2022/01/08 03:31:23;;;;;;;11.43;4.72;;;;;;;-6.79;53.47;100324.28;4982265;28;20117;-78
2022/01/08 03:33:55;;;;;;;13.50;5.32;;;;;;;-7.04;53.26;100314.44;4985903;28;20078;-78
2022/01/08 03:36:27;;;;;;;7.72;4.07;;;;;;;-6.84;53.66;100314.63;4982271;28;20074;-77
2022/01/08 03:38:58;;;;;;;4.05;2.92;;;;;;;-6.77;53.72;100311.63;4988547;28;20114;-77
2022/01/08 03:41:29;;;;;;;7.82;4.22;;;;;;;-6.72;53.71;100315.28;5001693;28;20366;-77
2022/01/08 03:44:00;;;;;;;5.63;3.30;;;;;;;-6.69;53.30;100305.28;5004408;28;20089;-77
2022/01/08 03:46:35;;;;;;;7.50;3.70;;;;;;;-6.74;53.36;100307.59;5005540;28;20058;-77
2022/01/08 03:49:23;;;;;;;12.15;5.78;;;;;;;-6.76;53.52;100309.19;5005792;28;20054;-77
2022/01/08 03:51:58;;;;;;;17.85;7.80;;;;;;;-6.84;53.35;100305.38;5005825;28;20146;-78
2022/01/08 03:54:29;;;;;;;8.32;4.68;;;;;;;-6.90;54.06;100294.00;5005697;28;20058;-77
2022/01/08 03:56:59;;;;;;;6.93;3.85;;;;;;;-6.83;53.47;100296.06;4995822;28;20118;-77
2022/01/08 03:59:30;;;;;;;7.35;3.25;;;;;;;-6.76;53.56;100298.16;4985888;28;20076;-75
2022/01/08 04:02:01;;;;;;;8.02;2.90;;;;;;;-6.69;53.60;100295.13;4985948;28;20093;-76
2022/01/08 04:04:32;;;;;;;5.50;2.83;;;;;;;-6.74;53.62;100272.03;4985836;28;20114;-75
2022/01/08 04:07:05;;;;;;;5.25;3.05;;;;;;;-6.62;53.68;100289.56;4985491;28;20082;-77
2022/01/08 04:09:36;;;;;;;6.35;2.88;;;;;;;-6.66;53.65;100292.75;4985091;28;20058;-77
2022/01/08 04:12:08;;;;;;;4.68;3.15;;;;;;;-6.67;53.50;100293.53;4985470;28;20050;-77
2022/01/08 04:14:51;;;;;;;12.48;5.65;;;;;;;-6.63;54.20;100290.38;4985521;28;20085;-77
2022/01/08 04:17:21;;;;;;;9.05;4.72;;;;;;;-6.57;53.78;100280.50;4985688;28;20062;-77
2022/01/08 04:19:52;;;;;;;7.18;4.25;;;;;;;-6.54;53.65;100279.78;4985741;28;20074;-77
2022/01/08 04:22:25;;;;;;;5.40;3.92;;;;;;;-6.63;53.36;100280.19;4985545;28;20338;-77
2022/01/08 04:24:56;;;;;;;5.63;3.60;;;;;;;-6.86;53.76;100260.31;4985462;28;20086;-77
2022/01/08 04:27:27;;;;;;;5.55;3.60;;;;;;;-6.73;54.47;100272.91;4985402;28;20114;-77
2022/01/08 04:29:58;;;;;;;8.57;4.90;;;;;;;-6.58;54.58;100278.78;4985131;28;20062;-78
2022/01/08 04:32:29;;;;;;;8.90;5.30;;;;;;;-6.78;54.42;100257.41;4985136;28;20078;-77
2022/01/08 04:35:03;;;;;;;13.18;7.57;;;;;;;-6.55;53.74;100273.84;4985056;28;20220;-78
2022/01/08 04:37:35;;;;;;;13.88;7.55;;;;;;;-6.58;53.99;100273.69;4985159;28;20047;-77
2022/01/08 04:40:07;;;;;;;10.00;4.10;;;;;;;-6.52;54.34;100274.00;4984670;28;20118;-79
2022/01/08 04:42:38;;;;;;;8.25;4.20;;;;;;;-6.54;54.01;100270.53;4985195;28;20070;-79
2022/01/08 04:45:10;;;;;;;6.80;4.00;;;;;;;-6.47;54.12;100270.84;4985388;28;20050;-79
2022/01/08 04:47:41;;;;;;;6.57;3.75;;;;;;;-6.56;54.49;100251.78;4984967;28;20078;-79
2022/01/08 04:50:13;;;;;;;8.50;4.90;;;;;;;-6.98;54.63;100179.28;4985034;28;20235;-78
2022/01/08 04:52:45;;;;;;;7.55;4.30;;;;;;;-6.59;54.31;100266.88;4985031;28;20114;-78
2022/01/08 04:55:16;;;;;;;6.10;2.97;;;;;;;-6.63;54.86;100264.97;4984115;28;20364;-78
2022/01/08 04:57:47;;;;;;;7.47;2.95;;;;;;;-6.70;54.62;100264.56;4984852;28;20394;-80
2022/01/08 05:00:20;;;;;;;6.30;3.22;;;;;;;-7.23;54.67;100182.19;4984919;28;20117;-79
2022/01/08 05:02:51;;;;;;;4.13;2.92;;;;;;;-6.76;54.85;100247.34;4984925;28;20118;-78
2022/01/08 05:05:22;;;;;;;4.25;2.80;;;;;;;-6.81;54.82;100241.13;4984845;28;20126;-79
2022/01/08 05:07:55;;;;;;;8.63;3.45;;;;;;;-6.69;54.16;100259.53;4984545;28;20062;-78
2022/01/08 05:10:26;;;;;;;3.97;2.85;;;;;;;-6.69;54.29;100269.69;4985706;28;20061;-79
2022/01/08 05:13:00;;;;;;;7.97;3.15;;;;;;;-6.65;54.48;100264.00;4988308;28;20061;-78
2022/01/08 05:15:31;;;;;;;5.68;3.20;;;;;;;-6.69;54.45;100259.53;4988328;28;20055;-78
2022/01/08 05:18:03;;;;;;;5.03;3.33;;;;;;;-6.67;54.76;100273.19;4987765;28;20066;-78
2022/01/08 05:20:37;;;;;;;4.72;2.92;;;;;;;-6.77;54.61;100271.84;4982679;28;20082;-77
2022/01/08 05:23:09;;;;;;;5.50;2.85;;;;;;;-6.86;55.03;100270.47;4984336;28;20135;-76
2022/01/08 05:25:40;;;;;;;5.82;3.53;;;;;;;-6.86;55.39;100265.41;4984434;28;20055;-75
2022/01/08 05:28:11;;;;;;;6.35;3.83;;;;;;;-7.21;55.67;100221.25;4984140;28;20066;-77
2022/01/08 05:30:42;;;;;;;9.30;4.30;;;;;;;-7.00;55.85;100275.69;4982588;28;20121;-76
2022/01/08 05:33:13;;;;;;;8.40;4.35;;;;;;;-7.21;56.17;100251.72;4981209;28;20058;-78
2022/01/08 05:35:44;;;;;;;8.68;5.32;;;;;;;-7.22;56.38;100268.59;4983047;28;20122;-77
2022/01/08 05:38:17;;;;;;;9.15;5.32;;;;;;;-7.28;56.93;100260.66;4983211;28;20062;-77
2022/01/08 05:40:48;;;;;;;11.88;4.63;;;;;;;-7.38;56.81;100259.25;4982929;28;20046;-77
2022/01/08 05:43:18;;;;;;;7.90;3.97;;;;;;;-7.60;57.03;100230.94;4987918;28;20077;-78
2022/01/08 05:45:49;;;;;;;7.90;3.88;;;;;;;-7.38;56.77;100269.41;4989063;28;20105;-77
2022/01/08 05:48:21;;;;;;;27.38;14.93;;;;;;;-7.35;56.69;100270.38;4989550;28;20405;-76
2022/01/08 05:50:52;;;;;;;8.68;5.22;;;;;;;-7.38;56.90;100254.19;4991004;28;20066;-77
2022/01/08 05:53:25;;;;;;;19.70;7.97;;;;;;;-7.39;56.65;100257.53;4982578;28;20109;-77
2022/01/08 05:55:55;;;;;;;13.20;5.35;;;;;;;-7.53;56.95;100248.28;4982562;28;20093;-77
2022/01/08 05:58:26;;;;;;;11.88;5.97;;;;;;;-7.49;57.68;100265.41;4982851;28;20406;-77
2022/01/08 06:00:57;;;;;;;19.25;7.65;;;;;;;-7.59;57.58;100253.00;4982877;28;20047;-77
2022/01/08 06:03:28;;;;;;;29.15;9.85;;;;;;;-7.62;58.00;100248.63;4983098;28;20070;-77
2022/01/08 06:05:59;;;;;;;31.27;9.82;;;;;;;-7.64;58.17;100259.47;4982624;28;20339;-77
2022/01/08 06:08:31;;;;;;;35.17;11.30;;;;;;;-7.73;58.61;100266.59;4982405;28;20051;-77
2022/01/08 06:11:02;;;;;;;46.58;13.50;;;;;;;-7.77;58.83;100267.19;4982605;28;20061;-77
2022/01/08 06:13:33;;;;;;;35.33;9.68;;;;;;;-7.82;59.18;100265.25;4982240;28;20122;-76
2022/01/08 06:16:04;;;;;;;26.08;8.73;;;;;;;-7.86;59.04;100263.34;4982253;28;20046;-76
2022/01/08 06:18:35;;;;;;;14.20;5.47;;;;;;;-8.00;59.14;100243.94;4982440;28;20097;-76
2022/01/08 06:21:07;;;;;;;30.00;8.77;;;;;;;-8.01;59.39;100237.13;4982415;28;20114;-76
2022/01/08 06:23:39;;;;;;;31.85;10.88;;;;;;;-7.91;59.28;100262.22;4981754;28;20455;-77
2022/01/08 06:26:10;;;;;;;15.00;6.03;;;;;;;-7.91;59.62;100269.81;4982312;28;20062;-77
2022/01/08 06:28:40;;;;;;;8.23;4.72;;;;;;;-8.08;59.72;100250.22;4986936;28;20359;-77
2022/01/08 06:31:11;;;;;;;7.07;3.70;;;;;;;-7.93;60.26;100263.78;4991980;28;20062;-77
2022/01/08 06:33:42;;;;;;;8.13;3.13;;;;;;;-7.98;60.47;100265.19;4990132;28;20057;-77
2022/01/08 06:36:13;;;;;;;6.90;2.90;;;;;;;-8.06;60.21;100266.41;4992122;28;20069;-77
2022/01/08 06:38:45;;;;;;;4.05;3.00;;;;;;;-8.15;60.34;100268.41;4992651;28;20358;-77
2022/01/08 06:41:16;;;;;;;4.85;2.95;;;;;;;-8.09;61.19;100273.81;4931697;28;20073;-77
2022/01/08 06:43:48;;;;;;;5.22;3.55;;;;;;;-8.06;61.19;100274.03;4992033;28;20054;-77
2022/01/08 06:46:18;;;;;;;6.97;3.80;;;;;;;-8.09;61.62;100269.63;4986650;28;20054;-77
2022/01/08 06:48:49;;;;;;;6.30;3.38;;;;;;;-8.13;62.00;100267.72;4981858;28;20074;-78
2022/01/08 06:51:20;;;;;;;4.65;2.95;;;;;;;-8.08;61.94;100270.50;4986319;28;20050;-78
2022/01/08 06:53:52;;;;;;;8.00;3.58;;;;;;;-8.15;62.41;100278.53;4985437;28;20054;-78
2022/01/08 06:56:23;;;;;;;5.70;3.42;;;;;;;-8.19;62.72;100276.59;4986751;28;20043;-78
2022/01/08 06:58:55;;;;;;;5.95;3.22;;;;;;;-8.27;63.21;100263.50;4988960;28;20090;-79
2022/01/08 07:01:25;;;;;;;4.20;2.95;;;;;;;-8.14;62.94;100285.34;4987742;28;20055;-78
2022/01/08 07:03:56;;;;;;;5.68;3.60;;;;;;;-8.15;63.09;100281.09;4991342;28;20090;-78
2022/01/08 07:06:27;;;;;;;5.72;3.22;;;;;;;-8.21;63.76;100283.25;4987630;28;20106;-77
2022/01/08 07:08:59;;;;;;;5.68;3.40;;;;;;;-8.22;63.62;100291.66;4979157;28;20078;-76
2022/01/08 07:11:30;;;;;;;6.32;3.60;;;;;;;-8.30;63.79;100289.53;4981446;28;20106;-77
2022/01/08 07:14:01;;;;;;;7.35;4.03;;;;;;;-8.52;64.31;100286.53;4981724;28;20399;-77
2022/01/08 07:16:33;;;;;;;13.70;3.58;;;;;;;-8.79;64.52;100280.69;4981637;28;20110;-77
2022/01/08 07:19:04;;;;;;;6.60;3.95;;;;;;;-8.94;64.71;100290.75;4983660;28;20133;-77
2022/01/08 07:21:35;;;;;;;18.10;5.03;;;;;;;-9.05;64.84;100291.75;4988659;28;20069;-76
2022/01/08 07:24:08;;;;;;;10.90;5.60;;;;;;;-9.12;65.09;100291.34;4987254;28;20051;-76
2022/01/08 07:26:38;;;;;;;12.13;4.90;;;;;;;-9.21;65.44;100270.56;4979502;28;20076;-76
2022/01/08 07:29:09;;;;;;;10.77;4.97;;;;;;;-9.11;65.59;100297.28;4981097;28;20050;-77
2022/01/08 07:31:40;;;;;;;9.52;4.03;;;;;;;-9.09;65.65;100299.94;4980591;28;20090;-74
2022/01/08 07:34:10;;;;;;;14.20;4.30;;;;;;;-9.09;66.04;100289.81;4981116;28;20134;-77
2022/01/08 07:36:41;;;;;;;8.65;5.68;;;;;;;-9.10;66.38;100298.19;4981272;28;20121;-77
2022/01/08 07:39:13;;;;;;;11.02;6.47;;;;;;;-9.07;66.80;100298.38;4981392;28;20117;-77
2022/01/08 07:41:44;;;;;;;11.80;7.22;;;;;;;-9.06;67.13;100295.03;4981479;28;20335;-77
2022/01/08 07:44:15;;;;;;;13.85;8.10;;;;;;;-9.11;67.10;100294.75;4981166;28;20093;-77
2022/01/08 07:46:45;;;;;;;14.30;9.07;;;;;;;-9.28;67.31;100272.59;4979624;28;20118;-76
2022/01/08 07:49:16;;;;;;;13.27;8.18;;;;;;;-9.24;67.26;100284.66;4980960;28;20061;-77
2022/01/08 07:51:48;;;;;;;15.02;7.85;;;;;;;-9.46;67.55;100278.25;4980894;28;20119;-77
2022/01/08 07:54:21;;;;;;;18.10;7.93;;;;;;;-9.36;67.88;100294.88;4980110;28;20047;-78
2022/01/08 07:56:51;;;;;;;14.05;8.27;;;;;;;-9.44;68.32;100281.75;4981330;28;20054;-77
2022/01/08 07:59:22;;;;;;;13.32;7.13;;;;;;;-9.34;68.76;100293.31;4980723;28;20285;-78
2022/01/08 08:01:53;;;;;;;16.13;6.93;;;;;;;-9.33;69.02;100290.03;4985327;28;20050;-77
2022/01/08 08:04:23;;;;;;;15.02;7.47;;;;;;;-9.41;69.27;100296.25;4989566;28;20050;-78
2022/01/08 08:06:54;;;;;;;19.58;7.38;;;;;;;-9.33;69.64;100290.03;4986636;28;20063;-78
2022/01/08 08:09:27;;;;;;;20.30;9.23;;;;;;;-9.47;70.06;100268.03;4999505;28;20062;-79
2022/01/08 08:11:57;;;;;;;11.10;6.90;;;;;;;-9.33;70.52;100290.03;4983948;28;20351;-78
2022/01/08 08:14:28;;;;;;;21.08;6.60;;;;;;;-9.51;70.83;100258.50;4978941;28;20106;-77
2022/01/08 08:16:59;;;;;;;9.25;5.22;;;;;;;-9.45;70.98;100285.06;4981002;28;20053;-77
2022/01/08 08:19:29;;;;;;;12.02;5.28;;;;;;;-9.56;71.44;100286.91;4980952;28;20068;-79
2022/01/08 08:22:00;;;;;;;12.68;6.18;;;;;;;-9.59;71.95;100291.75;4981243;28;20042;-77
2022/01/08 08:24:33;;;;;;;10.93;5.13;;;;;;;-9.74;72.23;100290.78;4981130;28;20055;-77
2022/01/08 08:27:03;;;;;;;8.88;5.13;;;;;;;-9.71;72.86;100290.97;4980736;28;20266;-79
2022/01/08 08:29:34;;;;;;;9.55;4.93;;;;;;;-9.75;73.08;100299.16;4981385;28;20051;-77
2022/01/08 08:32:05;;;;;;;13.23;6.18;;;;;;;-9.80;73.49;100297.97;4981029;28;20058;-78
2022/01/08 08:34:36;;;;;;;15.65;6.50;;;;;;;-9.85;74.11;100301.88;4984326;28;20105;-77
2022/01/08 08:37:08;;;;;;;34.92;12.10;;;;;;;-9.89;74.25;100287.25;4984439;28;20055;-77
2022/01/08 08:39:40;;;;;;;34.42;13.30;;;;;;;-9.81;74.53;100296.22;4991190;28;20118;-77
2022/01/08 08:42:11;;;;;;;45.47;17.52;;;;;;;-9.85;74.67;100281.63;4986914;28;20050;-77
2022/01/08 08:44:42;;;;;;;88.75;28.58;;;;;;;-9.83;75.03;100295.25;4989647;28;20082;-79
2022/01/08 08:47:13;;;;;;;89.10;30.33;;;;;;;-9.84;75.04;100304.47;4991009;28;20042;-78
2022/01/08 08:49:44;;;;;;;90.95;29.60;;;;;;;-9.91;75.32;100303.97;4992112;28;20064;-78
2022/01/08 08:52:14;;;;;;;36.03;15.02;;;;;;;-9.95;75.76;100307.09;4992771;28;20113;-78
2022/01/08 08:54:48;;;;;;;33.60;12.55;;;;;;;-10.05;76.05;100298.03;4989390;28;20113;-77
2022/01/08 08:57:18;;;;;;;44.72;16.95;;;;;;;-9.88;76.15;100311.75;4988428;28;20089;-77
2022/01/08 08:59:49;;;;;;;67.40;23.92;;;;;;;-9.81;76.37;100311.38;4990417;28;20077;-77
2022/01/08 09:02:21;;;;;;;77.72;28.30;;;;;;;-9.82;76.25;100307.13;4993599;28;20042;-78
2022/01/08 09:04:52;;;;;;;76.65;27.50;;;;;;;-9.75;76.42;100309.28;4990775;28;20046;-78
2022/01/08 09:07:23;;;;;;;47.63;20.38;;;;;;;-9.75;76.31;100303.34;4993981;28;20497;-78
2022/01/08 09:09:55;;;;;;;30.00;12.43;;;;;;;-9.80;76.37;100305.56;4987976;28;20089;-77
2022/01/08 09:12:27;;;;;;;24.30;10.75;;;;;;;-9.95;76.48;100284.34;4990564;28;20089;-78
2022/01/08 09:14:58;;;;;;;21.42;8.65;;;;;;;-9.77;76.65;100303.22;4990225;28;20058;-77
2022/01/08 09:17:28;;;;;;;22.10;9.38;;;;;;;-9.83;76.71;100293.59;4984793;28;20361;-78
2022/01/08 09:19:59;;;;;;;21.30;8.98;;;;;;;-9.76;76.78;100297.38;4988515;28;20373;-76
2022/01/08 09:22:30;;;;;;;20.30;8.48;;;;;;;-9.74;76.77;100305.94;4987047;28;20347;-78
2022/01/08 09:25:02;;;;;;;18.02;8.43;;;;;;;-9.79;76.83;100307.31;4983323;28;20047;-78
2022/01/08 09:27:34;;;;;;;19.52;7.13;;;;;;;-9.81;76.78;100318.97;4983372;28;20118;-77
2022/01/08 09:30:05;;;;;;;17.98;8.35;;;;;;;-9.91;77.04;100301.44;4983500;28;20110;-78
2022/01/08 09:32:37;;;;;;;17.48;8.00;;;;;;;-10.16;77.30;100274.56;4983192;28;20046;-78
2022/01/08 09:35:09;;;;;;;22.70;8.35;;;;;;;-9.86;77.50;100300.09;4985243;28;20058;-77
2022/01/08 09:37:40;;;;;;;21.83;8.68;;;;;;;-9.77;77.64;100300.69;4987198;28;20389;-78
2022/01/08 09:40:15;;;;;;;14.75;6.45;;;;;;;-9.79;77.54;100302.25;4991457;28;20050;-78
2022/01/08 09:42:47;;;;;;;16.25;7.30;;;;;;;-9.96;77.79;100278.38;4987354;28;20113;-78
2022/01/08 09:45:18;;;;;;;17.75;6.72;;;;;;;-9.84;78.00;100304.47;4992089;28;20042;-78
2022/01/08 09:47:48;;;;;;;14.32;6.57;;;;;;;-9.91;77.91;100286.28;4995030;28;20106;-77
2022/01/08 09:50:19;;;;;;;10.25;6.50;;;;;;;-9.82;78.00;100312.16;4983198;28;20109;-77
2022/01/08 09:52:53;;;;;;;12.25;5.80;;;;;;;-9.80;78.17;100301.38;4982718;28;20061;-77
2022/01/08 09:55:26;;;;;;;12.75;6.03;;;;;;;-9.77;78.08;100305.75;4981784;28;20065;-77
2022/01/08 09:57:58;;;;;;;10.70;5.22;;;;;;;-10.01;78.01;100285.69;4982845;28;20051;-78
2022/01/08 10:00:28;;;;;;;11.82;5.50;;;;;;;-10.08;78.18;100268.38;4982697;28;20058;-77
2022/01/08 10:03:15;;;;;;;10.20;4.50;;;;;;;-10.21;78.32;100255.69;4982798;28;20105;-77
2022/01/08 10:05:49;;;;;;;9.20;4.65;;;;;;;-9.86;78.73;100305.16;4984212;28;20050;-77
2022/01/08 10:08:44;;;;;;;7.88;4.75;;;;;;;-9.92;78.56;100304.75;4991247;28;20081;-76
2022/01/08 10:11:17;;;;;;;9.02;4.97;;;;;;;-9.93;78.59;100303.00;4991293;28;20335;-77
2022/01/08 10:13:52;;;;;;;11.95;5.78;;;;;;;-10.23;78.77;100267.38;4986996;28;20046;-76
2022/01/08 10:19:23;;;;;;;10.55;5.28;;;;;;;-10.06;78.93;100314.84;4988271;28;20282;-77
2022/01/08 10:21:55;;;;;;;16.13;7.43;;;;;;;-10.20;78.87;100302.94;4986021;28;20054;-77
2022/01/08 10:24:28;;;;;;;16.25;7.47;;;;;;;-10.27;78.78;100265.41;4992418;28;20054;-77
2022/01/08 10:27:06;;;;;;;29.05;10.75;;;;;;;-10.30;78.88;100275.34;4982513;28;20086;-77
2022/01/08 10:29:37;;;;;;;29.75;10.77;;;;;;;-10.12;78.73;100316.97;4982067;28;20109;-77
2022/01/08 10:32:10;;;;;;;22.45;9.70;;;;;;;-10.49;78.67;100274.09;4984605;28;20070;-76
2022/01/08 10:34:49;;;;;;;24.00;10.23;;;;;;;-10.24;79.03;100323.72;4986506;28;20100;-76
2022/01/08 10:37:21;;;;;;;21.85;9.23;;;;;;;-10.28;78.78;100321.78;4984199;28;20061;-76
2022/01/08 10:39:56;;;;;;;17.08;9.15;;;;;;;-10.42;79.00;100313.28;4981656;28;20059;-76
2022/01/08 10:42:29;;;;;;;17.05;7.82;;;;;;;-10.43;79.13;100314.94;4982094;28;20046;-75
2022/01/08 10:45:00;;;;;;;21.33;7.03;;;;;;;-10.51;79.08;100305.06;4982064;28;20055;-76
2022/01/08 10:47:33;;;;;;;14.80;6.63;;;;;;;-10.48;79.36;100306.19;4980479;28;20050;-75
2022/01/08 10:50:06;;;;;;;11.60;4.65;;;;;;;-10.64;79.36;100283.16;4981863;28;20051;-76
2022/01/08 10:52:46;;;;;;;11.10;4.97;;;;;;;-10.49;79.28;100309.47;4980951;28;20042;-76
2022/01/08 10:55:31;;;;;;;12.20;5.70;;;;;;;-10.46;79.48;100309.69;4977840;28;20058;-76
2022/01/08 10:58:04;;;;;;;12.40;5.47;;;;;;;-10.50;79.52;100294.22;4990631;28;20042;-76
2022/01/08 11:00:35;;;;;;;10.68;5.40;;;;;;;-10.47;79.50;100307.91;4979975;28;20114;-77
2022/01/08 11:03:06;;;;;;;7.85;4.50;;;;;;;-10.51;79.67;100305.94;4981849;28;20350;-76
2022/01/08 11:06:02;;;;;;;6.60;4.03;;;;;;;-10.52;79.67;100308.38;4981724;28;20074;-76
2022/01/08 11:08:33;;;;;;;5.43;3.25;;;;;;;-10.56;79.83;100307.28;4981898;28;20048;-77
2022/01/08 11:11:05;;;;;;;11.38;4.45;;;;;;;-10.56;79.62;100303.88;4979553;28;20093;-77
2022/01/08 11:13:38;;;;;;;6.15;3.97;;;;;;;-10.53;79.74;100307.53;4979965;28;20089;-77
2022/01/08 11:16:09;;;;;;;6.53;3.90;;;;;;;-10.53;79.57;100317.63;4981321;28;20046;-76
2022/01/08 11:18:41;;;;;;;7.93;4.13;;;;;;;-10.57;79.77;100305.53;4981753;28;20053;-77
2022/01/08 11:21:12;;;;;;;6.53;4.00;;;;;;;-10.62;79.77;100306.88;4991573;28;20065;-76
2022/01/08 11:23:43;;;;;;;9.15;3.65;;;;;;;-10.65;79.97;100306.69;4982986;28;20059;-76
2022/01/08 11:26:14;;;;;;;8.65;4.05;;;;;;;-10.66;79.80;100304.91;4981341;28;20081;-76
2022/01/08 11:28:50;;;;;;;8.25;3.92;;;;;;;-10.62;79.93;100301.84;4981538;28;20057;-76
2022/01/08 11:31:22;;;;;;;8.18;3.90;;;;;;;-10.65;79.93;100306.69;4980491;28;20129;-75
2022/01/08 11:33:59;;;;;;;8.82;3.60;;;;;;;-10.67;79.73;100303.16;4976650;28;20059;-76
2022/01/08 11:36:32;;;;;;;6.90;4.13;;;;;;;-10.79;79.87;100277.09;4981094;28;20385;-75
2022/01/08 11:39:03;;;;;;;7.95;3.58;;;;;;;-10.68;79.77;100296.38;4981047;28;20275;-78
2022/01/08 11:41:34;;;;;;;8.57;3.83;;;;;;;-10.66;79.83;100300.75;4981102;28;20097;-75
2022/01/08 11:44:07;;;;;;;5.70;3.72;;;;;;;-10.64;79.69;100298.31;4980645;28;20047;-75
2022/01/08 11:46:39;;;;;;;7.15;3.53;;;;;;;-10.64;79.74;100303.38;4981088;28;20342;-75
2022/01/08 11:49:10;;;;;;;9.50;4.20;;;;;;;-10.76;79.55;100293.31;4980496;28;20046;-76
2022/01/08 11:51:41;;;;;;;4.93;3.33;;;;;;;-10.66;79.63;100299.84;4980069;28;20093;-75
2022/01/08 11:54:12;;;;;;;5.55;3.33;;;;;;;-10.67;79.52;100293.06;4979503;28;20085;-76
2022/01/08 11:56:42;;;;;;;6.43;3.67;;;;;;;-10.61;79.66;100298.53;4981062;28;20386;-76
2022/01/08 11:59:18;;;;;;;5.95;3.42;;;;;;;-10.63;79.49;100305.16;4980424;28;20220;-77
2022/01/08 12:02:10;;;;;;;5.93;3.60;;;;;;;-10.65;79.50;100296.59;4980833;28;20098;-77